sensor_id;sensor_type;location;lat;lon;timestamp;P1;durP1;ratioP1;P2;durP2;ratioP2
72273;SDS011;60208;48.692;8.948;2022-12-18T00:01:00;57.67;;;27.45;;
72273;SDS011;60208;48.692;8.948;2022-12-18T00:03:30;60.03;;;27.73;;
72273;SDS011;60208;48.692;8.948;2022-12-18T00:05:59;62.85;;;30.05;;
72273;SDS011;60208;48.692;8.948;2022-12-18T00:08:24;61.58;;;29.52;;
72273;SDS011;60208;48.692;8.948;2022-12-18T00:10:50;67.78;;;31.55;;
72273;SDS011;60208;48.692;8.948;2022-12-18T00:13:15;64.28;;;29.00;;
72273;SDS011;60208;48.692;8.948;2022-12-18T00:15:41;61.75;;;29.92;;
72273;SDS011;60208;48.692;8.948;2022-12-18T00:18:06;67.20;;;30.13;;
72273;SDS011;60208;48.692;8.948;2022-12-18T00:20:35;72.75;;;32.03;;
72273;SDS011;60208;48.692;8.948;2022-12-18T00:23:04;79.07;;;33.72;;
72273;SDS011;60208;48.692;8.948;2022-12-18T00:25:32;71.00;;;34.05;;
72273;SDS011;60208;48.692;8.948;2022-12-18T00:27:58;68.32;;;32.30;;
72273;SDS011;60208;48.692;8.948;2022-12-18T00:30:23;76.35;;;34.58;;
72273;SDS011;60208;48.692;8.948;2022-12-18T00:32:49;68.18;;;33.00;;
72273;SDS011;60208;48.692;8.948;2022-12-18T00:35:14;72.70;;;35.97;;
72273;SDS011;60208;48.692;8.948;2022-12-18T00:37:39;66.85;;;33.17;;
72273;SDS011;60208;48.692;8.948;2022-12-18T00:40:05;76.88;;;33.00;;
72273;SDS011;60208;48.692;8.948;2022-12-18T00:42:31;71.38;;;31.33;;
72273;SDS011;60208;48.692;8.948;2022-12-18T00:45:15;66.82;;;30.13;;
72273;SDS011;60208;48.692;8.948;2022-12-18T00:47:40;66.65;;;32.38;;
72273;SDS011;60208;48.692;8.948;2022-12-18T00:50:06;66.40;;;31.27;;
72273;SDS011;60208;48.692;8.948;2022-12-18T00:52:34;66.45;;;32.15;;
72273;SDS011;60208;48.692;8.948;2022-12-18T00:55:03;66.57;;;31.10;;
72273;SDS011;60208;48.692;8.948;2022-12-18T01:00:59;67.35;;;29.92;;
72273;SDS011;60208;48.692;8.948;2022-12-18T01:03:31;70.38;;;29.73;;
72273;SDS011;60208;48.692;8.948;2022-12-18T01:05:56;62.08;;;29.33;;
72273;SDS011;60208;48.692;8.948;2022-12-18T01:08:22;58.90;;;28.88;;
72273;SDS011;60208;48.692;8.948;2022-12-18T01:10:47;54.72;;;26.75;;
72273;SDS011;60208;48.692;8.948;2022-12-18T01:13:13;59.63;;;27.42;;
72273;SDS011;60208;48.692;8.948;2022-12-18T01:15:38;61.08;;;26.95;;
72273;SDS011;60208;48.692;8.948;2022-12-18T01:18:04;57.17;;;27.00;;
72273;SDS011;60208;48.692;8.948;2022-12-18T01:20:30;57.15;;;27.42;;
72273;SDS011;60208;48.692;8.948;2022-12-18T01:22:56;66.68;;;28.25;;
72273;SDS011;60208;48.692;8.948;2022-12-18T01:25:21;62.70;;;27.35;;
72273;SDS011;60208;48.692;8.948;2022-12-18T01:27:46;58.80;;;27.73;;
72273;SDS011;60208;48.692;8.948;2022-12-18T01:30:12;61.00;;;27.80;;
72273;SDS011;60208;48.692;8.948;2022-12-18T01:32:37;57.85;;;27.75;;
72273;SDS011;60208;48.692;8.948;2022-12-18T01:35:03;61.35;;;26.70;;
72273;SDS011;60208;48.692;8.948;2022-12-18T01:37:28;55.67;;;26.35;;
72273;SDS011;60208;48.692;8.948;2022-12-18T01:39:54;52.50;;;25.77;;
72273;SDS011;60208;48.692;8.948;2022-12-18T01:42:19;63.75;;;26.23;;
72273;SDS011;60208;48.692;8.948;2022-12-18T01:44:53;56.00;;;26.98;;
72273;SDS011;60208;48.692;8.948;2022-12-18T01:50:31;58.50;;;25.77;;
72273;SDS011;60208;48.692;8.948;2022-12-18T01:53:07;55.45;;;25.52;;
72273;SDS011;60208;48.692;8.948;2022-12-18T01:55:43;59.60;;;25.77;;
72273;SDS011;60208;48.692;8.948;2022-12-18T01:58:10;54.78;;;25.50;;
72273;SDS011;60208;48.692;8.948;2022-12-18T02:00:36;55.92;;;25.20;;
72273;SDS011;60208;48.692;8.948;2022-12-18T02:03:01;57.22;;;25.35;;
72273;SDS011;60208;48.692;8.948;2022-12-18T02:05:46;49.53;;;25.17;;
72273;SDS011;60208;48.692;8.948;2022-12-18T02:18:51;52.05;;;23.40;;
72273;SDS011;60208;48.692;8.948;2022-12-18T02:24:24;51.53;;;23.90;;
72273;SDS011;60208;48.692;8.948;2022-12-18T02:27:00;47.03;;;22.70;;
72273;SDS011;60208;48.692;8.948;2022-12-18T02:29:30;45.35;;;22.60;;
72273;SDS011;60208;48.692;8.948;2022-12-18T02:31:57;46.70;;;22.52;;
72273;SDS011;60208;48.692;8.948;2022-12-18T02:34:24;45.00;;;21.48;;
72273;SDS011;60208;48.692;8.948;2022-12-18T02:36:52;47.45;;;21.92;;
72273;SDS011;60208;48.692;8.948;2022-12-18T02:39:18;49.13;;;22.67;;
72273;SDS011;60208;48.692;8.948;2022-12-18T02:41:46;48.55;;;23.63;;
72273;SDS011;60208;48.692;8.948;2022-12-18T02:44:12;48.38;;;24.08;;
72273;SDS011;60208;48.692;8.948;2022-12-18T02:52:24;41.25;;;20.98;;
72273;SDS011;60208;48.692;8.948;2022-12-18T02:57:51;43.28;;;20.75;;
72273;SDS011;60208;48.692;8.948;2022-12-18T03:00:23;45.63;;;21.23;;
72273;SDS011;60208;48.692;8.948;2022-12-18T03:05:51;43.08;;;22.20;;
72273;SDS011;60208;48.692;8.948;2022-12-18T03:08:24;47.72;;;22.35;;
72273;SDS011;60208;48.692;8.948;2022-12-18T03:10:54;50.97;;;23.58;;
72273;SDS011;60208;48.692;8.948;2022-12-18T03:13:56;51.08;;;24.17;;
72273;SDS011;60208;48.692;8.948;2022-12-18T03:16:19;49.38;;;22.48;;
72273;SDS011;60208;48.692;8.948;2022-12-18T03:18:51;51.47;;;24.02;;
72273;SDS011;60208;48.692;8.948;2022-12-18T03:21:23;53.17;;;23.65;;
72273;SDS011;60208;48.692;8.948;2022-12-18T03:23:51;48.33;;;23.08;;
72273;SDS011;60208;48.692;8.948;2022-12-18T03:26:19;53.75;;;24.25;;
72273;SDS011;60208;48.692;8.948;2022-12-18T03:28:51;51.67;;;23.45;;
72273;SDS011;60208;48.692;8.948;2022-12-18T03:31:19;54.75;;;22.40;;
72273;SDS011;60208;48.692;8.948;2022-12-18T03:33:51;49.40;;;23.52;;
72273;SDS011;60208;48.692;8.948;2022-12-18T03:36:18;51.25;;;23.75;;
72273;SDS011;60208;48.692;8.948;2022-12-18T03:38:43;55.40;;;23.60;;
72273;SDS011;60208;48.692;8.948;2022-12-18T03:43:51;57.17;;;24.80;;
72273;SDS011;60208;48.692;8.948;2022-12-18T03:49:41;57.70;;;24.95;;
72273;SDS011;60208;48.692;8.948;2022-12-18T03:52:03;59.70;;;24.40;;
72273;SDS011;60208;48.692;8.948;2022-12-18T03:54:31;62.58;;;25.45;;
72273;SDS011;60208;48.692;8.948;2022-12-18T03:56:59;62.55;;;25.98;;
72273;SDS011;60208;48.692;8.948;2022-12-18T03:59:28;56.33;;;25.67;;
72273;SDS011;60208;48.692;8.948;2022-12-18T04:01:54;58.63;;;25.30;;
72273;SDS011;60208;48.692;8.948;2022-12-18T04:04:22;60.80;;;24.75;;
72273;SDS011;60208;48.692;8.948;2022-12-18T04:06:49;62.45;;;25.42;;
72273;SDS011;60208;48.692;8.948;2022-12-18T04:09:15;62.75;;;25.77;;
72273;SDS011;60208;48.692;8.948;2022-12-18T04:11:41;71.30;;;26.77;;
72273;SDS011;60208;48.692;8.948;2022-12-18T04:14:08;67.13;;;26.30;;
72273;SDS011;60208;48.692;8.948;2022-12-18T04:16:34;64.07;;;25.10;;
72273;SDS011;60208;48.692;8.948;2022-12-18T04:18:59;64.18;;;24.60;;
72273;SDS011;60208;48.692;8.948;2022-12-18T04:21:27;58.67;;;24.33;;
72273;SDS011;60208;48.692;8.948;2022-12-18T04:23:53;68.50;;;26.17;;
72273;SDS011;60208;48.692;8.948;2022-12-18T04:26:21;67.65;;;26.92;;
72273;SDS011;60208;48.692;8.948;2022-12-18T04:28:49;60.85;;;23.90;;
72273;SDS011;60208;48.692;8.948;2022-12-18T04:31:14;67.65;;;24.58;;
72273;SDS011;60208;48.692;8.948;2022-12-18T04:33:40;76.97;;;25.88;;
72273;SDS011;60208;48.692;8.948;2022-12-18T04:36:06;82.28;;;25.25;;
72273;SDS011;60208;48.692;8.948;2022-12-18T04:38:31;94.28;;;25.52;;
72273;SDS011;60208;48.692;8.948;2022-12-18T04:40:57;101.45;;;26.15;;
72273;SDS011;60208;48.692;8.948;2022-12-18T04:43:23;74.75;;;25.23;;
72273;SDS011;60208;48.692;8.948;2022-12-18T04:45:48;70.15;;;25.40;;
72273;SDS011;60208;48.692;8.948;2022-12-18T04:48:13;91.38;;;25.40;;
72273;SDS011;60208;48.692;8.948;2022-12-18T04:50:39;85.85;;;25.38;;
72273;SDS011;60208;48.692;8.948;2022-12-18T04:53:04;89.97;;;27.15;;
72273;SDS011;60208;48.692;8.948;2022-12-18T04:55:30;91.32;;;28.63;;
72273;SDS011;60208;48.692;8.948;2022-12-18T04:57:55;77.90;;;24.60;;
72273;SDS011;60208;48.692;8.948;2022-12-18T05:00:20;100.82;;;29.88;;
72273;SDS011;60208;48.692;8.948;2022-12-18T05:02:46;94.90;;;28.67;;
72273;SDS011;60208;48.692;8.948;2022-12-18T05:05:11;82.07;;;26.92;;
72273;SDS011;60208;48.692;8.948;2022-12-18T05:07:37;74.13;;;26.38;;
72273;SDS011;60208;48.692;8.948;2022-12-18T05:10:02;78.25;;;27.10;;
72273;SDS011;60208;48.692;8.948;2022-12-18T05:12:28;83.65;;;25.67;;
72273;SDS011;60208;48.692;8.948;2022-12-18T05:14:53;72.15;;;25.98;;
72273;SDS011;60208;48.692;8.948;2022-12-18T05:17:19;71.82;;;27.70;;
72273;SDS011;60208;48.692;8.948;2022-12-18T05:19:44;74.85;;;26.60;;
72273;SDS011;60208;48.692;8.948;2022-12-18T05:22:09;70.10;;;27.40;;
72273;SDS011;60208;48.692;8.948;2022-12-18T05:24:35;64.68;;;25.25;;
72273;SDS011;60208;48.692;8.948;2022-12-18T05:27:00;64.72;;;25.13;;
72273;SDS011;60208;48.692;8.948;2022-12-18T05:29:26;69.45;;;25.67;;
72273;SDS011;60208;48.692;8.948;2022-12-18T05:31:51;60.20;;;24.75;;
72273;SDS011;60208;48.692;8.948;2022-12-18T05:34:17;65.80;;;25.95;;
72273;SDS011;60208;48.692;8.948;2022-12-18T05:36:42;55.88;;;24.58;;
72273;SDS011;60208;48.692;8.948;2022-12-18T05:39:07;59.85;;;24.88;;
72273;SDS011;60208;48.692;8.948;2022-12-18T05:41:33;60.50;;;25.27;;
72273;SDS011;60208;48.692;8.948;2022-12-18T05:43:58;61.95;;;24.25;;
72273;SDS011;60208;48.692;8.948;2022-12-18T05:46:24;62.70;;;24.25;;
72273;SDS011;60208;48.692;8.948;2022-12-18T05:48:49;56.50;;;24.42;;
72273;SDS011;60208;48.692;8.948;2022-12-18T05:51:16;59.58;;;23.92;;
72273;SDS011;60208;48.692;8.948;2022-12-18T05:53:42;54.13;;;24.00;;
72273;SDS011;60208;48.692;8.948;2022-12-18T05:56:09;56.65;;;24.33;;
72273;SDS011;60208;48.692;8.948;2022-12-18T05:58:36;54.72;;;22.30;;
72273;SDS011;60208;48.692;8.948;2022-12-18T06:03:37;56.40;;;23.10;;
72273;SDS011;60208;48.692;8.948;2022-12-18T06:06:02;49.08;;;21.70;;
72273;SDS011;60208;48.692;8.948;2022-12-18T06:08:28;56.53;;;24.13;;
72273;SDS011;60208;48.692;8.948;2022-12-18T06:10:53;50.40;;;22.23;;
72273;SDS011;60208;48.692;8.948;2022-12-18T06:13:19;51.95;;;22.70;;
72273;SDS011;60208;48.692;8.948;2022-12-18T06:15:45;55.08;;;22.77;;
72273;SDS011;60208;48.692;8.948;2022-12-18T06:18:10;48.70;;;20.98;;
72273;SDS011;60208;48.692;8.948;2022-12-18T06:20:36;46.45;;;20.95;;
72273;SDS011;60208;48.692;8.948;2022-12-18T06:23:04;45.22;;;21.10;;
72273;SDS011;60208;48.692;8.948;2022-12-18T06:25:30;51.13;;;21.75;;
72273;SDS011;60208;48.692;8.948;2022-12-18T06:27:55;52.03;;;21.83;;
72273;SDS011;60208;48.692;8.948;2022-12-18T06:30:21;45.60;;;20.17;;
72273;SDS011;60208;48.692;8.948;2022-12-18T06:32:50;50.33;;;21.35;;
72273;SDS011;60208;48.692;8.948;2022-12-18T06:35:16;51.55;;;21.23;;
72273;SDS011;60208;48.692;8.948;2022-12-18T06:37:41;43.67;;;20.88;;
72273;SDS011;60208;48.692;8.948;2022-12-18T06:40:06;45.13;;;20.58;;
72273;SDS011;60208;48.692;8.948;2022-12-18T06:42:32;43.90;;;20.33;;
72273;SDS011;60208;48.692;8.948;2022-12-18T06:44:58;49.53;;;21.35;;
72273;SDS011;60208;48.692;8.948;2022-12-18T06:47:23;50.92;;;22.30;;
72273;SDS011;60208;48.692;8.948;2022-12-18T06:49:49;54.20;;;23.00;;
72273;SDS011;60208;48.692;8.948;2022-12-18T06:52:15;59.15;;;22.83;;
72273;SDS011;60208;48.692;8.948;2022-12-18T06:54:41;61.25;;;23.35;;
72273;SDS011;60208;48.692;8.948;2022-12-18T06:57:06;58.08;;;23.65;;
72273;SDS011;60208;48.692;8.948;2022-12-18T06:59:31;61.58;;;24.92;;
72273;SDS011;60208;48.692;8.948;2022-12-18T07:01:57;64.72;;;26.25;;
72273;SDS011;60208;48.692;8.948;2022-12-18T07:04:26;60.25;;;24.98;;
72273;SDS011;60208;48.692;8.948;2022-12-18T07:06:53;64.57;;;25.20;;
72273;SDS011;60208;48.692;8.948;2022-12-18T07:09:18;63.97;;;24.33;;
72273;SDS011;60208;48.692;8.948;2022-12-18T07:11:43;59.92;;;23.23;;
72273;SDS011;60208;48.692;8.948;2022-12-18T07:14:09;63.67;;;23.98;;
72273;SDS011;60208;48.692;8.948;2022-12-18T07:16:34;65.70;;;25.20;;
72273;SDS011;60208;48.692;8.948;2022-12-18T07:18:59;71.10;;;25.48;;
72273;SDS011;60208;48.692;8.948;2022-12-18T07:21:25;69.57;;;24.77;;
72273;SDS011;60208;48.692;8.948;2022-12-18T07:23:50;69.18;;;25.38;;
72273;SDS011;60208;48.692;8.948;2022-12-18T07:26:16;64.55;;;24.45;;
72273;SDS011;60208;48.692;8.948;2022-12-18T07:28:43;61.63;;;24.08;;
72273;SDS011;60208;48.692;8.948;2022-12-18T07:31:10;61.08;;;23.55;;
72273;SDS011;60208;48.692;8.948;2022-12-18T07:33:37;55.83;;;23.05;;
72273;SDS011;60208;48.692;8.948;2022-12-18T07:36:03;55.42;;;24.02;;
72273;SDS011;60208;48.692;8.948;2022-12-18T07:38:29;55.33;;;24.63;;
72273;SDS011;60208;48.692;8.948;2022-12-18T07:41:00;58.05;;;23.48;;
72273;SDS011;60208;48.692;8.948;2022-12-18T07:43:28;60.38;;;22.50;;
72273;SDS011;60208;48.692;8.948;2022-12-18T07:45:54;57.72;;;24.25;;
72273;SDS011;60208;48.692;8.948;2022-12-18T07:48:19;62.63;;;23.67;;
72273;SDS011;60208;48.692;8.948;2022-12-18T07:50:45;58.63;;;23.75;;
72273;SDS011;60208;48.692;8.948;2022-12-18T07:53:10;62.20;;;24.02;;
72273;SDS011;60208;48.692;8.948;2022-12-18T07:55:35;56.03;;;24.08;;
72273;SDS011;60208;48.692;8.948;2022-12-18T07:58:01;57.63;;;24.60;;
72273;SDS011;60208;48.692;8.948;2022-12-18T08:00:30;59.90;;;24.83;;
72273;SDS011;60208;48.692;8.948;2022-12-18T08:02:55;57.50;;;23.83;;
72273;SDS011;60208;48.692;8.948;2022-12-18T08:05:21;64.45;;;27.92;;
72273;SDS011;60208;48.692;8.948;2022-12-18T08:07:46;55.13;;;23.70;;
72273;SDS011;60208;48.692;8.948;2022-12-18T08:10:12;54.10;;;23.95;;
72273;SDS011;60208;48.692;8.948;2022-12-18T08:12:38;59.75;;;25.67;;
72273;SDS011;60208;48.692;8.948;2022-12-18T08:15:03;63.78;;;24.95;;
72273;SDS011;60208;48.692;8.948;2022-12-18T08:17:29;61.28;;;24.95;;
72273;SDS011;60208;48.692;8.948;2022-12-18T08:19:55;56.72;;;24.30;;
72273;SDS011;60208;48.692;8.948;2022-12-18T08:22:20;58.30;;;26.23;;
72273;SDS011;60208;48.692;8.948;2022-12-18T08:24:45;59.13;;;25.98;;
72273;SDS011;60208;48.692;8.948;2022-12-18T08:27:11;56.88;;;26.08;;
72273;SDS011;60208;48.692;8.948;2022-12-18T08:29:36;58.15;;;25.80;;
72273;SDS011;60208;48.692;8.948;2022-12-18T08:32:02;56.10;;;26.27;;
72273;SDS011;60208;48.692;8.948;2022-12-18T08:34:27;54.65;;;24.65;;
72273;SDS011;60208;48.692;8.948;2022-12-18T08:36:53;55.83;;;26.10;;
72273;SDS011;60208;48.692;8.948;2022-12-18T08:39:18;54.40;;;24.63;;
72273;SDS011;60208;48.692;8.948;2022-12-18T08:41:44;52.83;;;24.45;;
72273;SDS011;60208;48.692;8.948;2022-12-18T08:44:29;49.97;;;24.73;;
72273;SDS011;60208;48.692;8.948;2022-12-18T08:47:04;50.60;;;24.98;;
72273;SDS011;60208;48.692;8.948;2022-12-18T08:49:30;52.38;;;25.70;;
72273;SDS011;60208;48.692;8.948;2022-12-18T08:51:56;58.45;;;27.73;;
72273;SDS011;60208;48.692;8.948;2022-12-18T08:54:24;51.55;;;26.48;;
72273;SDS011;60208;48.692;8.948;2022-12-18T08:56:50;49.00;;;26.00;;
72273;SDS011;60208;48.692;8.948;2022-12-18T08:59:16;53.33;;;27.15;;
72273;SDS011;60208;48.692;8.948;2022-12-18T09:01:42;51.17;;;25.83;;
72273;SDS011;60208;48.692;8.948;2022-12-18T09:04:08;53.65;;;27.42;;
72273;SDS011;60208;48.692;8.948;2022-12-18T09:06:34;53.67;;;27.25;;
72273;SDS011;60208;48.692;8.948;2022-12-18T09:08:59;52.28;;;26.00;;
72273;SDS011;60208;48.692;8.948;2022-12-18T09:11:25;49.10;;;25.63;;
72273;SDS011;60208;48.692;8.948;2022-12-18T09:13:52;54.20;;;28.27;;
72273;SDS011;60208;48.692;8.948;2022-12-18T09:16:19;54.95;;;27.23;;
72273;SDS011;60208;48.692;8.948;2022-12-18T09:18:44;53.45;;;28.20;;
72273;SDS011;60208;48.692;8.948;2022-12-18T09:21:19;51.78;;;27.63;;
72273;SDS011;60208;48.692;8.948;2022-12-18T09:23:49;52.88;;;28.35;;
72273;SDS011;60208;48.692;8.948;2022-12-18T09:26:15;51.15;;;27.08;;
72273;SDS011;60208;48.692;8.948;2022-12-18T09:28:41;58.13;;;30.33;;
72273;SDS011;60208;48.692;8.948;2022-12-18T09:31:07;54.45;;;29.17;;
72273;SDS011;60208;48.692;8.948;2022-12-18T09:33:34;54.15;;;29.73;;
72273;SDS011;60208;48.692;8.948;2022-12-18T09:36:01;53.60;;;29.40;;
72273;SDS011;60208;48.692;8.948;2022-12-18T09:38:30;52.30;;;28.75;;
72273;SDS011;60208;48.692;8.948;2022-12-18T09:40:57;53.85;;;28.25;;
72273;SDS011;60208;48.692;8.948;2022-12-18T09:45:53;50.85;;;27.60;;
72273;SDS011;60208;48.692;8.948;2022-12-18T09:48:22;47.65;;;27.83;;
72273;SDS011;60208;48.692;8.948;2022-12-18T09:50:50;49.47;;;26.65;;
72273;SDS011;60208;48.692;8.948;2022-12-18T09:53:20;49.22;;;27.25;;
72273;SDS011;60208;48.692;8.948;2022-12-18T09:56:03;46.70;;;28.05;;
72273;SDS011;60208;48.692;8.948;2022-12-18T10:01:12;46.28;;;26.92;;
72273;SDS011;60208;48.692;8.948;2022-12-18T10:03:39;47.40;;;27.77;;
72273;SDS011;60208;48.692;8.948;2022-12-18T10:06:23;48.78;;;29.17;;
72273;SDS011;60208;48.692;8.948;2022-12-18T10:11:50;51.33;;;29.58;;
72273;SDS011;60208;48.692;8.948;2022-12-18T10:19:53;45.17;;;27.23;;
72273;SDS011;60208;48.692;8.948;2022-12-18T10:27:44;47.38;;;28.55;;
72273;SDS011;60208;48.692;8.948;2022-12-18T10:30:16;67.80;;;38.92;;
72273;SDS011;60208;48.692;8.948;2022-12-18T10:32:43;60.38;;;35.83;;
72273;SDS011;60208;48.692;8.948;2022-12-18T10:35:20;50.40;;;29.38;;
72273;SDS011;60208;48.692;8.948;2022-12-18T10:40:32;46.13;;;27.83;;
72273;SDS011;60208;48.692;8.948;2022-12-18T10:43:09;48.70;;;26.33;;
72273;SDS011;60208;48.692;8.948;2022-12-18T10:45:36;48.13;;;26.67;;
72273;SDS011;60208;48.692;8.948;2022-12-18T10:48:01;50.00;;;27.02;;
72273;SDS011;60208;48.692;8.948;2022-12-18T10:50:29;48.83;;;26.85;;
72273;SDS011;60208;48.692;8.948;2022-12-18T10:52:58;48.70;;;26.48;;
72273;SDS011;60208;48.692;8.948;2022-12-18T10:55:27;45.60;;;25.35;;
72273;SDS011;60208;48.692;8.948;2022-12-18T10:58:00;48.97;;;25.67;;
72273;SDS011;60208;48.692;8.948;2022-12-18T11:03:37;42.50;;;24.40;;
72273;SDS011;60208;48.692;8.948;2022-12-18T11:06:08;45.47;;;25.13;;
72273;SDS011;60208;48.692;8.948;2022-12-18T11:08:38;43.58;;;26.52;;
72273;SDS011;60208;48.692;8.948;2022-12-18T11:11:04;42.30;;;25.88;;
72273;SDS011;60208;48.692;8.948;2022-12-18T11:13:33;49.08;;;26.77;;
72273;SDS011;60208;48.692;8.948;2022-12-18T11:15:58;46.53;;;26.75;;
72273;SDS011;60208;48.692;8.948;2022-12-18T11:18:31;42.78;;;25.85;;
72273;SDS011;60208;48.692;8.948;2022-12-18T11:21:09;42.00;;;25.15;;
72273;SDS011;60208;48.692;8.948;2022-12-18T11:23:35;41.38;;;25.23;;
72273;SDS011;60208;48.692;8.948;2022-12-18T11:26:02;43.72;;;26.23;;
72273;SDS011;60208;48.692;8.948;2022-12-18T11:28:51;40.95;;;25.63;;
72273;SDS011;60208;48.692;8.948;2022-12-18T11:33:46;42.05;;;26.67;;
72273;SDS011;60208;48.692;8.948;2022-12-18T11:36:14;36.40;;;25.25;;
72273;SDS011;60208;48.692;8.948;2022-12-18T11:38:41;37.28;;;24.55;;
72273;SDS011;60208;48.692;8.948;2022-12-18T11:41:19;38.45;;;24.27;;
72273;SDS011;60208;48.692;8.948;2022-12-18T11:44:22;34.92;;;23.98;;
72273;SDS011;60208;48.692;8.948;2022-12-18T11:46:53;37.90;;;23.80;;
72273;SDS011;60208;48.692;8.948;2022-12-18T11:49:34;37.63;;;23.98;;
72273;SDS011;60208;48.692;8.948;2022-12-18T11:52:02;34.67;;;24.08;;
72273;SDS011;60208;48.692;8.948;2022-12-18T11:54:30;35.67;;;24.35;;
72273;SDS011;60208;48.692;8.948;2022-12-18T11:56:56;34.65;;;22.75;;
72273;SDS011;60208;48.692;8.948;2022-12-18T12:13:23;34.97;;;23.15;;
72273;SDS011;60208;48.692;8.948;2022-12-18T12:22:00;38.15;;;24.58;;
72273;SDS011;60208;48.692;8.948;2022-12-18T12:27:44;37.80;;;23.07;;
72273;SDS011;60208;48.692;8.948;2022-12-18T12:33:15;38.70;;;23.67;;
72273;SDS011;60208;48.692;8.948;2022-12-18T12:40:49;36.60;;;22.65;;
72273;SDS011;60208;48.692;8.948;2022-12-18T12:45:57;35.53;;;21.75;;
72273;SDS011;60208;48.692;8.948;2022-12-18T12:51:20;35.80;;;22.73;;
72273;SDS011;60208;48.692;8.948;2022-12-18T12:53:46;36.42;;;22.17;;
72273;SDS011;60208;48.692;8.948;2022-12-18T12:56:13;34.22;;;21.33;;
72273;SDS011;60208;48.692;8.948;2022-12-18T13:09:21;33.28;;;20.85;;
72273;SDS011;60208;48.692;8.948;2022-12-18T13:11:47;32.42;;;20.33;;
72273;SDS011;60208;48.692;8.948;2022-12-18T13:19:47;31.80;;;20.48;;
72273;SDS011;60208;48.692;8.948;2022-12-18T13:22:21;34.17;;;20.33;;
72273;SDS011;60208;48.692;8.948;2022-12-18T13:24:47;35.35;;;22.08;;
72273;SDS011;60208;48.692;8.948;2022-12-18T13:41:03;40.63;;;24.17;;
72273;SDS011;60208;48.692;8.948;2022-12-18T13:43:50;40.15;;;23.27;;
72273;SDS011;60208;48.692;8.948;2022-12-18T13:46:24;39.83;;;23.15;;
72273;SDS011;60208;48.692;8.948;2022-12-18T13:48:53;36.53;;;22.20;;
72273;SDS011;60208;48.692;8.948;2022-12-18T13:51:30;39.65;;;22.27;;
72273;SDS011;60208;48.692;8.948;2022-12-18T13:53:58;37.63;;;21.70;;
72273;SDS011;60208;48.692;8.948;2022-12-18T13:56:28;35.30;;;20.35;;
72273;SDS011;60208;48.692;8.948;2022-12-18T14:01:44;39.83;;;22.77;;
72273;SDS011;60208;48.692;8.948;2022-12-18T14:04:12;40.00;;;22.02;;
72273;SDS011;60208;48.692;8.948;2022-12-18T14:09:28;39.03;;;23.25;;
72273;SDS011;60208;48.692;8.948;2022-12-18T14:11:55;36.65;;;21.42;;
72273;SDS011;60208;48.692;8.948;2022-12-18T14:14:42;39.83;;;24.35;;
72273;SDS011;60208;48.692;8.948;2022-12-18T14:17:10;40.88;;;24.70;;
72273;SDS011;60208;48.692;8.948;2022-12-18T14:19:36;45.13;;;25.50;;
72273;SDS011;60208;48.692;8.948;2022-12-18T14:22:02;48.83;;;26.08;;
72273;SDS011;60208;48.692;8.948;2022-12-18T14:24:28;42.92;;;24.80;;
72273;SDS011;60208;48.692;8.948;2022-12-18T14:26:56;44.20;;;25.05;;
72273;SDS011;60208;48.692;8.948;2022-12-18T14:29:38;40.35;;;23.90;;
72273;SDS011;60208;48.692;8.948;2022-12-18T14:32:14;41.60;;;22.98;;
72273;SDS011;60208;48.692;8.948;2022-12-18T14:34:43;39.72;;;22.98;;
72273;SDS011;60208;48.692;8.948;2022-12-18T14:37:31;43.30;;;24.20;;
72273;SDS011;60208;48.692;8.948;2022-12-18T14:39:58;46.47;;;26.67;;
72273;SDS011;60208;48.692;8.948;2022-12-18T14:42:29;52.83;;;27.30;;
72273;SDS011;60208;48.692;8.948;2022-12-18T14:48:00;48.92;;;26.88;;
72273;SDS011;60208;48.692;8.948;2022-12-18T14:50:31;47.85;;;26.35;;
72273;SDS011;60208;48.692;8.948;2022-12-18T14:52:57;49.70;;;26.52;;
72273;SDS011;60208;48.692;8.948;2022-12-18T14:55:22;47.58;;;25.70;;
72273;SDS011;60208;48.692;8.948;2022-12-18T14:57:51;49.17;;;26.73;;
72273;SDS011;60208;48.692;8.948;2022-12-18T15:00:19;53.95;;;28.13;;
72273;SDS011;60208;48.692;8.948;2022-12-18T15:02:50;46.88;;;26.40;;
72273;SDS011;60208;48.692;8.948;2022-12-18T15:05:23;52.67;;;27.77;;
72273;SDS011;60208;48.692;8.948;2022-12-18T15:07:51;53.28;;;28.33;;
72273;SDS011;60208;48.692;8.948;2022-12-18T15:13:27;53.08;;;27.98;;
72273;SDS011;60208;48.692;8.948;2022-12-18T15:20:32;55.85;;;29.27;;
72273;SDS011;60208;48.692;8.948;2022-12-18T15:23:04;54.22;;;29.42;;
72273;SDS011;60208;48.692;8.948;2022-12-18T15:27:59;59.40;;;31.90;;
72273;SDS011;60208;48.692;8.948;2022-12-18T15:30:25;51.15;;;28.95;;
72273;SDS011;60208;48.692;8.948;2022-12-18T15:32:51;56.90;;;28.80;;
72273;SDS011;60208;48.692;8.948;2022-12-18T15:37:47;45.25;;;23.38;;
72273;SDS011;60208;48.692;8.948;2022-12-18T15:40:16;41.92;;;22.40;;
72273;SDS011;60208;48.692;8.948;2022-12-18T15:42:44;46.30;;;22.30;;
72273;SDS011;60208;48.692;8.948;2022-12-18T15:45:28;43.45;;;21.95;;
72273;SDS011;60208;48.692;8.948;2022-12-18T15:47:54;42.45;;;21.15;;
72273;SDS011;60208;48.692;8.948;2022-12-18T15:50:19;43.65;;;21.23;;
72273;SDS011;60208;48.692;8.948;2022-12-18T15:52:45;46.65;;;22.30;;
72273;SDS011;60208;48.692;8.948;2022-12-18T15:55:12;44.95;;;22.35;;
72273;SDS011;60208;48.692;8.948;2022-12-18T15:57:56;45.92;;;23.42;;
72273;SDS011;60208;48.692;8.948;2022-12-18T16:00:22;52.58;;;25.80;;
72273;SDS011;60208;48.692;8.948;2022-12-18T16:02:47;52.33;;;26.27;;
72273;SDS011;60208;48.692;8.948;2022-12-18T16:05:16;57.13;;;26.70;;
72273;SDS011;60208;48.692;8.948;2022-12-18T16:07:43;54.92;;;26.02;;
72273;SDS011;60208;48.692;8.948;2022-12-18T16:10:09;57.95;;;27.60;;
72273;SDS011;60208;48.692;8.948;2022-12-18T16:12:34;57.17;;;29.02;;
72273;SDS011;60208;48.692;8.948;2022-12-18T16:15:00;59.53;;;28.75;;
72273;SDS011;60208;48.692;8.948;2022-12-18T16:17:25;58.97;;;29.38;;
72273;SDS011;60208;48.692;8.948;2022-12-18T16:19:51;61.05;;;31.50;;
72273;SDS011;60208;48.692;8.948;2022-12-18T16:24:49;70.70;;;32.03;;
72273;SDS011;60208;48.692;8.948;2022-12-18T16:27:15;66.05;;;32.00;;
72273;SDS011;60208;48.692;8.948;2022-12-18T16:29:41;67.72;;;33.85;;
72273;SDS011;60208;48.692;8.948;2022-12-18T16:32:06;69.75;;;34.00;;
72273;SDS011;60208;48.692;8.948;2022-12-18T16:34:33;68.82;;;31.67;;
72273;SDS011;60208;48.692;8.948;2022-12-18T16:37:06;65.68;;;33.08;;
72273;SDS011;60208;48.692;8.948;2022-12-18T16:39:35;66.65;;;31.65;;
72273;SDS011;60208;48.692;8.948;2022-12-18T16:42:02;67.15;;;31.58;;
72273;SDS011;60208;48.692;8.948;2022-12-18T16:44:28;63.65;;;30.73;;
72273;SDS011;60208;48.692;8.948;2022-12-18T16:46:54;60.30;;;30.98;;
72273;SDS011;60208;48.692;8.948;2022-12-18T16:49:19;61.53;;;30.95;;
72273;SDS011;60208;48.692;8.948;2022-12-18T16:51:45;62.15;;;30.45;;
72273;SDS011;60208;48.692;8.948;2022-12-18T16:54:11;63.13;;;30.70;;
72273;SDS011;60208;48.692;8.948;2022-12-18T16:56:37;64.20;;;32.33;;
72273;SDS011;60208;48.692;8.948;2022-12-18T16:59:03;70.72;;;33.72;;
72273;SDS011;60208;48.692;8.948;2022-12-18T17:01:29;63.75;;;31.38;;
72273;SDS011;60208;48.692;8.948;2022-12-18T17:03:56;59.75;;;28.95;;